Airport View

Enter AWOS ICAO identifier for current METAR.

ex. KFNL

KBUU 120532Z AUTO 00000KT 10SM CLR M10/M12 A3047 RMK AO2 T10971118

12 Dec 2019 05:33

Frequency: 114.50

Phone: 262-757-0907

Other Area AWOS: K57C - KENW - KUES - KRAC

TAF KENW 112340Z 1200/1224 VRB03KT P6SM SKC FM121400 17015G22KT P6SM BKN120 FM121900 20017KT P6SM VCSH BKN120 FM122300 22013KT P6SM OVC035